sensor_id;sensor_type;location;lat;lon;timestamp;temperature;humidity
42031;DHT22;27709;52.036;5.906;2022-07-04T00:00:10;14.10;97.10
42031;DHT22;27709;52.036;5.906;2022-07-04T00:02:37;14.10;97.10
42031;DHT22;27709;52.036;5.906;2022-07-04T00:05:04;14.00;97.10
42031;DHT22;27709;52.036;5.906;2022-07-04T00:07:29;14.00;96.90
42031;DHT22;27709;52.036;5.906;2022-07-04T00:09:55;14.00;96.80
42031;DHT22;27709;52.036;5.906;2022-07-04T00:12:20;13.90;96.80
42031;DHT22;27709;52.036;5.906;2022-07-04T00:14:46;13.90;97.00
42031;DHT22;27709;52.036;5.906;2022-07-04T00:17:11;13.90;97.00
42031;DHT22;27709;52.036;5.906;2022-07-04T00:19:37;13.80;97.10
42031;DHT22;27709;52.036;5.906;2022-07-04T00:22:03;13.80;97.10
42031;DHT22;27709;52.036;5.906;2022-07-04T00:24:28;13.70;97.20
42031;DHT22;27709;52.036;5.906;2022-07-04T00:26:54;13.70;97.30
42031;DHT22;27709;52.036;5.906;2022-07-04T00:29:20;13.60;97.30
42031;DHT22;27709;52.036;5.906;2022-07-04T00:31:45;13.60;97.30
42031;DHT22;27709;52.036;5.906;2022-07-04T00:34:11;13.50;97.40
42031;DHT22;27709;52.036;5.906;2022-07-04T00:36:36;13.40;97.50
42031;DHT22;27709;52.036;5.906;2022-07-04T00:39:03;13.40;97.50
42031;DHT22;27709;52.036;5.906;2022-07-04T00:41:28;13.30;97.60
42031;DHT22;27709;52.036;5.906;2022-07-04T00:44:05;13.30;97.70
42031;DHT22;27709;52.036;5.906;2022-07-04T00:46:31;13.30;97.50
42031;DHT22;27709;52.036;5.906;2022-07-04T00:48:57;13.30;97.40
42031;DHT22;27709;52.036;5.906;2022-07-04T00:51:23;13.30;97.30
42031;DHT22;27709;52.036;5.906;2022-07-04T00:53:50;13.20;97.30
42031;DHT22;27709;52.036;5.906;2022-07-04T00:56:16;13.20;97.50
42031;DHT22;27709;52.036;5.906;2022-07-04T00:58:42;13.10;97.50
42031;DHT22;27709;52.036;5.906;2022-07-04T01:01:07;13.10;97.60
42031;DHT22;27709;52.036;5.906;2022-07-04T01:03:33;13.10;97.60
42031;DHT22;27709;52.036;5.906;2022-07-04T01:06:00;13.00;97.60
42031;DHT22;27709;52.036;5.906;2022-07-04T01:08:25;12.90;97.70
42031;DHT22;27709;52.036;5.906;2022-07-04T01:10:51;12.90;97.70
42031;DHT22;27709;52.036;5.906;2022-07-04T01:13:24;12.80;97.60
42031;DHT22;27709;52.036;5.906;2022-07-04T01:15:50;12.80;97.80
42031;DHT22;27709;52.036;5.906;2022-07-04T01:18:16;12.70;97.80
42031;DHT22;27709;52.036;5.906;2022-07-04T01:20:43;12.70;97.90
42031;DHT22;27709;52.036;5.906;2022-07-04T01:23:08;12.70;98.00
42031;DHT22;27709;52.036;5.906;2022-07-04T01:25:34;12.80;98.00
42031;DHT22;27709;52.036;5.906;2022-07-04T01:27:59;12.70;98.00
42031;DHT22;27709;52.036;5.906;2022-07-04T01:30:26;12.70;97.90
42031;DHT22;27709;52.036;5.906;2022-07-04T01:32:52;12.70;97.90
42031;DHT22;27709;52.036;5.906;2022-07-04T01:35:18;12.70;97.90
42031;DHT22;27709;52.036;5.906;2022-07-04T01:37:44;12.70;97.80
42031;DHT22;27709;52.036;5.906;2022-07-04T01:40:10;12.70;97.80
42031;DHT22;27709;52.036;5.906;2022-07-04T01:42:38;12.70;97.90
42031;DHT22;27709;52.036;5.906;2022-07-04T01:45:04;12.60;97.90
42031;DHT22;27709;52.036;5.906;2022-07-04T01:47:30;12.60;98.10
42031;DHT22;27709;52.036;5.906;2022-07-04T01:49:55;12.50;98.10
42031;DHT22;27709;52.036;5.906;2022-07-04T01:52:21;12.50;98.10
42031;DHT22;27709;52.036;5.906;2022-07-04T01:54:46;12.40;98.10
42031;DHT22;27709;52.036;5.906;2022-07-04T01:57:13;12.30;98.20
42031;DHT22;27709;52.036;5.906;2022-07-04T01:59:39;12.30;98.20
42031;DHT22;27709;52.036;5.906;2022-07-04T02:02:23;12.30;98.10
42031;DHT22;27709;52.036;5.906;2022-07-04T02:04:49;12.20;98.40
42031;DHT22;27709;52.036;5.906;2022-07-04T02:07:15;12.20;98.00
42031;DHT22;27709;52.036;5.906;2022-07-04T02:09:40;12.10;98.00
42031;DHT22;27709;52.036;5.906;2022-07-04T02:12:06;12.10;98.10
42031;DHT22;27709;52.036;5.906;2022-07-04T02:14:50;12.10;98.10
42031;DHT22;27709;52.036;5.906;2022-07-04T02:17:16;12.00;98.10
42031;DHT22;27709;52.036;5.906;2022-07-04T02:19:41;12.00;98.20
42031;DHT22;27709;52.036;5.906;2022-07-04T02:22:07;12.00;98.30
42031;DHT22;27709;52.036;5.906;2022-07-04T02:24:32;11.90;98.30
42031;DHT22;27709;52.036;5.906;2022-07-04T02:26:58;11.90;98.30
42031;DHT22;27709;52.036;5.906;2022-07-04T02:29:23;11.90;98.40
42031;DHT22;27709;52.036;5.906;2022-07-04T02:31:49;11.90;98.40
42031;DHT22;27709;52.036;5.906;2022-07-04T02:34:14;11.90;98.30
42031;DHT22;27709;52.036;5.906;2022-07-04T02:36:40;11.90;98.30
42031;DHT22;27709;52.036;5.906;2022-07-04T02:39:05;11.90;98.20
42031;DHT22;27709;52.036;5.906;2022-07-04T02:41:34;11.80;98.20
42031;DHT22;27709;52.036;5.906;2022-07-04T02:44:00;11.80;98.20
42031;DHT22;27709;52.036;5.906;2022-07-04T02:46:25;11.80;98.30
42031;DHT22;27709;52.036;5.906;2022-07-04T02:48:51;11.70;98.30
42031;DHT22;27709;52.036;5.906;2022-07-04T02:51:17;11.70;98.50
42031;DHT22;27709;52.036;5.906;2022-07-04T02:53:42;11.70;98.50
42031;DHT22;27709;52.036;5.906;2022-07-04T02:56:08;11.80;98.50
42031;DHT22;27709;52.036;5.906;2022-07-04T02:58:34;11.80;98.50
42031;DHT22;27709;52.036;5.906;2022-07-04T03:01:00;11.80;98.60
42031;DHT22;27709;52.036;5.906;2022-07-04T03:03:26;11.80;98.60
42031;DHT22;27709;52.036;5.906;2022-07-04T03:05:52;11.80;98.60
42031;DHT22;27709;52.036;5.906;2022-07-04T03:08:18;11.80;98.50
42031;DHT22;27709;52.036;5.906;2022-07-04T03:10:44;11.70;98.40
42031;DHT22;27709;52.036;5.906;2022-07-04T03:13:09;11.70;98.40
42031;DHT22;27709;52.036;5.906;2022-07-04T03:15:35;11.60;98.40
42031;DHT22;27709;52.036;5.906;2022-07-04T03:18:00;11.50;98.60
42031;DHT22;27709;52.036;5.906;2022-07-04T03:20:26;11.50;98.50
42031;DHT22;27709;52.036;5.906;2022-07-04T03:22:51;11.40;98.50
42031;DHT22;27709;52.036;5.906;2022-07-04T03:25:20;11.30;98.50
42031;DHT22;27709;52.036;5.906;2022-07-04T03:27:45;11.30;98.60
42031;DHT22;27709;52.036;5.906;2022-07-04T03:30:11;11.30;98.60
42031;DHT22;27709;52.036;5.906;2022-07-04T03:32:37;11.30;98.60
42031;DHT22;27709;52.036;5.906;2022-07-04T03:35:03;11.30;98.70
42031;DHT22;27709;52.036;5.906;2022-07-04T03:37:28;11.30;98.70
42031;DHT22;27709;52.036;5.906;2022-07-04T03:39:54;11.30;98.70
42031;DHT22;27709;52.036;5.906;2022-07-04T03:42:19;11.30;98.80
42031;DHT22;27709;52.036;5.906;2022-07-04T03:44:45;11.20;98.90
42031;DHT22;27709;52.036;5.906;2022-07-04T03:47:10;11.20;99.00
42031;DHT22;27709;52.036;5.906;2022-07-04T03:49:36;11.20;99.00
42031;DHT22;27709;52.036;5.906;2022-07-04T03:52:01;11.20;99.00
42031;DHT22;27709;52.036;5.906;2022-07-04T03:54:28;11.20;99.00
42031;DHT22;27709;52.036;5.906;2022-07-04T03:56:54;11.20;99.20
42031;DHT22;27709;52.036;5.906;2022-07-04T03:59:20;11.20;99.30
42031;DHT22;27709;52.036;5.906;2022-07-04T04:01:45;11.30;99.70
42031;DHT22;27709;52.036;5.906;2022-07-04T04:04:11;11.30;99.50
42031;DHT22;27709;52.036;5.906;2022-07-04T04:06:55;11.40;99.50
42031;DHT22;27709;52.036;5.906;2022-07-04T04:09:21;11.40;99.60
42031;DHT22;27709;52.036;5.906;2022-07-04T04:11:50;11.50;99.70
42031;DHT22;27709;52.036;5.906;2022-07-04T04:14:15;11.50;99.80
42031;DHT22;27709;52.036;5.906;2022-07-04T04:16:41;11.50;99.90
42031;DHT22;27709;52.036;5.906;2022-07-04T04:19:08;11.50;99.90
42031;DHT22;27709;52.036;5.906;2022-07-04T04:21:34;11.70;99.90
42031;DHT22;27709;52.036;5.906;2022-07-04T04:24:00;11.80;99.90
42031;DHT22;27709;52.036;5.906;2022-07-04T04:26:26;12.00;99.90
42031;DHT22;27709;52.036;5.906;2022-07-04T04:28:52;12.20;99.90
42031;DHT22;27709;52.036;5.906;2022-07-04T04:31:17;12.30;99.90
42031;DHT22;27709;52.036;5.906;2022-07-04T04:33:43;12.40;99.90
42031;DHT22;27709;52.036;5.906;2022-07-04T04:36:09;12.60;99.90
42031;DHT22;27709;52.036;5.906;2022-07-04T04:38:34;12.80;99.90
42031;DHT22;27709;52.036;5.906;2022-07-04T04:41:00;12.90;99.90
42031;DHT22;27709;52.036;5.906;2022-07-04T04:43:25;13.10;99.90
42031;DHT22;27709;52.036;5.906;2022-07-04T04:45:51;13.20;99.90
42031;DHT22;27709;52.036;5.906;2022-07-04T04:48:16;13.40;99.90
42031;DHT22;27709;52.036;5.906;2022-07-04T04:50:43;13.50;99.90
42031;DHT22;27709;52.036;5.906;2022-07-04T04:53:09;13.50;99.90
42031;DHT22;27709;52.036;5.906;2022-07-04T04:55:34;13.60;99.90
42031;DHT22;27709;52.036;5.906;2022-07-04T04:58:00;13.70;99.90
42031;DHT22;27709;52.036;5.906;2022-07-04T05:00:26;13.80;99.90
42031;DHT22;27709;52.036;5.906;2022-07-04T05:02:52;13.90;99.90
42031;DHT22;27709;52.036;5.906;2022-07-04T05:05:17;14.00;99.90
42031;DHT22;27709;52.036;5.906;2022-07-04T05:07:43;14.10;99.90
42031;DHT22;27709;52.036;5.906;2022-07-04T05:10:09;14.10;99.90
42031;DHT22;27709;52.036;5.906;2022-07-04T05:12:35;14.10;99.90
42031;DHT22;27709;52.036;5.906;2022-07-04T05:15:00;14.20;99.90
42031;DHT22;27709;52.036;5.906;2022-07-04T05:17:26;14.20;99.90
42031;DHT22;27709;52.036;5.906;2022-07-04T05:19:52;14.40;99.90
42031;DHT22;27709;52.036;5.906;2022-07-04T05:22:17;14.40;99.90
42031;DHT22;27709;52.036;5.906;2022-07-04T05:24:43;14.50;99.90
42031;DHT22;27709;52.036;5.906;2022-07-04T05:27:08;14.60;99.90
42031;DHT22;27709;52.036;5.906;2022-07-04T05:29:34;14.70;99.90
42031;DHT22;27709;52.036;5.906;2022-07-04T05:32:00;14.70;99.90
42031;DHT22;27709;52.036;5.906;2022-07-04T05:34:25;14.80;99.90
42031;DHT22;27709;52.036;5.906;2022-07-04T05:36:51;14.90;99.90
42031;DHT22;27709;52.036;5.906;2022-07-04T05:39:16;15.00;99.90
42031;DHT22;27709;52.036;5.906;2022-07-04T05:41:42;15.10;99.90
42031;DHT22;27709;52.036;5.906;2022-07-04T05:44:08;15.30;99.90
42031;DHT22;27709;52.036;5.906;2022-07-04T05:46:33;15.40;99.90
42031;DHT22;27709;52.036;5.906;2022-07-04T05:48:59;15.50;99.90
42031;DHT22;27709;52.036;5.906;2022-07-04T05:51:24;15.60;99.90
42031;DHT22;27709;52.036;5.906;2022-07-04T05:53:50;15.80;99.90
42031;DHT22;27709;52.036;5.906;2022-07-04T05:56:16;15.90;99.90
42031;DHT22;27709;52.036;5.906;2022-07-04T05:58:41;16.00;99.90
42031;DHT22;27709;52.036;5.906;2022-07-04T06:01:07;16.10;99.90
42031;DHT22;27709;52.036;5.906;2022-07-04T06:03:34;16.40;99.90
42031;DHT22;27709;52.036;5.906;2022-07-04T06:06:02;16.60;99.90
42031;DHT22;27709;52.036;5.906;2022-07-04T06:08:28;16.80;99.90
42031;DHT22;27709;52.036;5.906;2022-07-04T06:10:53;17.00;99.60
42031;DHT22;27709;52.036;5.906;2022-07-04T06:13:19;17.10;99.10
42031;DHT22;27709;52.036;5.906;2022-07-04T06:15:44;17.50;99.10
42031;DHT22;27709;52.036;5.906;2022-07-04T06:18:10;18.00;98.40
42031;DHT22;27709;52.036;5.906;2022-07-04T06:20:37;18.30;97.60
42031;DHT22;27709;52.036;5.906;2022-07-04T06:23:05;18.50;97.10
42031;DHT22;27709;52.036;5.906;2022-07-04T06:25:31;18.50;96.90
42031;DHT22;27709;52.036;5.906;2022-07-04T06:27:57;18.60;96.70
42031;DHT22;27709;52.036;5.906;2022-07-04T06:30:23;18.60;96.50
42031;DHT22;27709;52.036;5.906;2022-07-04T06:32:51;18.70;96.50
42031;DHT22;27709;52.036;5.906;2022-07-04T06:35:26;18.70;96.20
42031;DHT22;27709;52.036;5.906;2022-07-04T06:38:14;18.70;96.30
42031;DHT22;27709;52.036;5.906;2022-07-04T06:40:41;18.70;96.20
42031;DHT22;27709;52.036;5.906;2022-07-04T06:43:06;18.90;96.10
42031;DHT22;27709;52.036;5.906;2022-07-04T06:45:32;19.20;95.80
42031;DHT22;27709;52.036;5.906;2022-07-04T06:48:01;19.40;95.60
42031;DHT22;27709;52.036;5.906;2022-07-04T06:50:27;19.60;94.30
42031;DHT22;27709;52.036;5.906;2022-07-04T06:52:53;19.30;94.10
42031;DHT22;27709;52.036;5.906;2022-07-04T06:55:19;19.20;94.40
42031;DHT22;27709;52.036;5.906;2022-07-04T06:57:44;19.20;94.60
42031;DHT22;27709;52.036;5.906;2022-07-04T07:00:10;19.20;94.50
42031;DHT22;27709;52.036;5.906;2022-07-04T07:02:37;19.30;94.80
42031;DHT22;27709;52.036;5.906;2022-07-04T07:05:03;20.00;94.20
42031;DHT22;27709;52.036;5.906;2022-07-04T07:07:29;21.00;93.20
42031;DHT22;27709;52.036;5.906;2022-07-04T07:09:55;22.00;91.90
42031;DHT22;27709;52.036;5.906;2022-07-04T07:12:21;22.70;90.10
42031;DHT22;27709;52.036;5.906;2022-07-04T07:14:49;22.70;89.80
42031;DHT22;27709;52.036;5.906;2022-07-04T07:17:14;22.60;89.00
42031;DHT22;27709;52.036;5.906;2022-07-04T07:19:41;22.40;89.30
42031;DHT22;27709;52.036;5.906;2022-07-04T07:22:11;22.10;89.90
42031;DHT22;27709;52.036;5.906;2022-07-04T07:24:37;21.80;90.20
42031;DHT22;27709;52.036;5.906;2022-07-04T07:27:04;21.60;90.80
42031;DHT22;27709;52.036;5.906;2022-07-04T07:29:29;21.50;90.90
42031;DHT22;27709;52.036;5.906;2022-07-04T07:31:55;21.50;91.10
42031;DHT22;27709;52.036;5.906;2022-07-04T07:34:21;21.40;91.10
42031;DHT22;27709;52.036;5.906;2022-07-04T07:36:46;21.40;91.20
42031;DHT22;27709;52.036;5.906;2022-07-04T07:39:12;21.20;91.00
42031;DHT22;27709;52.036;5.906;2022-07-04T07:41:38;21.10;91.10
42031;DHT22;27709;52.036;5.906;2022-07-04T07:44:03;21.10;91.70
42031;DHT22;27709;52.036;5.906;2022-07-04T07:46:29;21.20;91.50
42031;DHT22;27709;52.036;5.906;2022-07-04T07:48:54;21.80;91.60
42031;DHT22;27709;52.036;5.906;2022-07-04T07:51:20;22.70;90.90
42031;DHT22;27709;52.036;5.906;2022-07-04T07:53:46;23.70;88.70
42031;DHT22;27709;52.036;5.906;2022-07-04T07:56:11;24.10;86.00
42031;DHT22;27709;52.036;5.906;2022-07-04T07:58:37;24.70;85.40
42031;DHT22;27709;52.036;5.906;2022-07-04T08:01:02;25.50;83.10
42031;DHT22;27709;52.036;5.906;2022-07-04T08:03:28;26.00;80.50
42031;DHT22;27709;52.036;5.906;2022-07-04T08:06:13;26.50;78.00
42031;DHT22;27709;52.036;5.906;2022-07-04T08:08:39;26.80;79.10
42031;DHT22;27709;52.036;5.906;2022-07-04T08:11:04;27.10;76.80
42031;DHT22;27709;52.036;5.906;2022-07-04T08:13:30;27.20;76.50
42031;DHT22;27709;52.036;5.906;2022-07-04T08:15:55;26.90;75.80
42031;DHT22;27709;52.036;5.906;2022-07-04T08:18:21;26.30;76.10
42031;DHT22;27709;52.036;5.906;2022-07-04T08:20:48;25.70;77.40
42031;DHT22;27709;52.036;5.906;2022-07-04T08:23:14;25.40;79.10
42031;DHT22;27709;52.036;5.906;2022-07-04T08:25:39;25.20;80.10
42031;DHT22;27709;52.036;5.906;2022-07-04T08:28:05;25.00;81.20
42031;DHT22;27709;52.036;5.906;2022-07-04T08:30:31;24.70;80.30
42031;DHT22;27709;52.036;5.906;2022-07-04T08:32:56;24.50;81.70
42031;DHT22;27709;52.036;5.906;2022-07-04T08:35:22;24.40;81.70
42031;DHT22;27709;52.036;5.906;2022-07-04T08:37:47;24.30;83.00
42031;DHT22;27709;52.036;5.906;2022-07-04T08:40:20;24.20;82.50
42031;DHT22;27709;52.036;5.906;2022-07-04T08:42:47;24.00;83.40
42031;DHT22;27709;52.036;5.906;2022-07-04T08:45:15;23.90;83.90
42031;DHT22;27709;52.036;5.906;2022-07-04T08:47:43;23.90;82.60
42031;DHT22;27709;52.036;5.906;2022-07-04T08:50:16;23.60;83.60
42031;DHT22;27709;52.036;5.906;2022-07-04T08:52:54;23.40;84.80
42031;DHT22;27709;52.036;5.906;2022-07-04T08:55:21;23.50;85.20
42031;DHT22;27709;52.036;5.906;2022-07-04T08:58:06;23.50;85.70
42031;DHT22;27709;52.036;5.906;2022-07-04T09:00:56;23.70;86.40
42031;DHT22;27709;52.036;5.906;2022-07-04T09:03:23;24.00;84.60
42031;DHT22;27709;52.036;5.906;2022-07-04T09:05:49;24.20;84.60
42031;DHT22;27709;52.036;5.906;2022-07-04T09:08:15;24.60;84.50
42031;DHT22;27709;52.036;5.906;2022-07-04T09:10:41;25.20;81.40
42031;DHT22;27709;52.036;5.906;2022-07-04T09:13:09;25.60;79.50
42031;DHT22;27709;52.036;5.906;2022-07-04T09:15:38;25.90;79.20
42031;DHT22;27709;52.036;5.906;2022-07-04T09:18:05;26.20;78.70
42031;DHT22;27709;52.036;5.906;2022-07-04T09:20:36;26.20;77.30
42031;DHT22;27709;52.036;5.906;2022-07-04T09:23:20;25.80;78.20
42031;DHT22;27709;52.036;5.906;2022-07-04T09:25:50;25.40;79.10
42031;DHT22;27709;52.036;5.906;2022-07-04T09:28:30;25.00;79.90
42031;DHT22;27709;52.036;5.906;2022-07-04T09:30:56;24.60;80.30
42031;DHT22;27709;52.036;5.906;2022-07-04T09:33:23;24.20;81.60
42031;DHT22;27709;52.036;5.906;2022-07-04T09:36:40;23.90;83.00
42031;DHT22;27709;52.036;5.906;2022-07-04T09:47:27;25.60;80.00
42031;DHT22;27709;52.036;5.906;2022-07-04T09:52:56;26.00;78.30
42031;DHT22;27709;52.036;5.906;2022-07-04T09:55:28;26.40;77.30
42031;DHT22;27709;52.036;5.906;2022-07-04T09:58:03;26.90;76.20
42031;DHT22;27709;52.036;5.906;2022-07-04T10:00:45;27.30;73.50
42031;DHT22;27709;52.036;5.906;2022-07-04T10:08:33;28.30;69.90
42031;DHT22;27709;52.036;5.906;2022-07-04T10:11:02;28.50;69.50
42031;DHT22;27709;52.036;5.906;2022-07-04T10:13:28;28.70;69.80
42031;DHT22;27709;52.036;5.906;2022-07-04T10:15:54;29.10;66.70
42031;DHT22;27709;52.036;5.906;2022-07-04T10:18:21;29.30;65.70
42031;DHT22;27709;52.036;5.906;2022-07-04T10:20:48;29.50;63.20
42031;DHT22;27709;52.036;5.906;2022-07-04T10:23:15;29.50;63.50
42031;DHT22;27709;52.036;5.906;2022-07-04T10:25:41;29.40;62.30
42031;DHT22;27709;52.036;5.906;2022-07-04T10:28:09;29.00;62.90
42031;DHT22;27709;52.036;5.906;2022-07-04T10:30:37;28.50;65.00
42031;DHT22;27709;52.036;5.906;2022-07-04T10:33:05;28.00;65.00
42031;DHT22;27709;52.036;5.906;2022-07-04T10:35:55;27.50;64.90
42031;DHT22;27709;52.036;5.906;2022-07-04T10:38:29;26.90;66.30
42031;DHT22;27709;52.036;5.906;2022-07-04T10:41:02;26.40;68.00
42031;DHT22;27709;52.036;5.906;2022-07-04T10:46:27;25.80;68.70
42031;DHT22;27709;52.036;5.906;2022-07-04T10:51:43;25.70;69.50
42031;DHT22;27709;52.036;5.906;2022-07-04T10:54:10;25.70;69.30
42031;DHT22;27709;52.036;5.906;2022-07-04T10:56:40;25.60;68.80
42031;DHT22;27709;52.036;5.906;2022-07-04T11:01:38;25.70;70.90
42031;DHT22;27709;52.036;5.906;2022-07-04T11:04:03;25.70;69.20
42031;DHT22;27709;52.036;5.906;2022-07-04T11:09:20;25.70;69.50
42031;DHT22;27709;52.036;5.906;2022-07-04T11:12:05;25.60;68.50
42031;DHT22;27709;52.036;5.906;2022-07-04T11:17:04;26.00;68.70
42031;DHT22;27709;52.036;5.906;2022-07-04T11:19:30;26.20;69.90
42031;DHT22;27709;52.036;5.906;2022-07-04T11:21:56;26.50;68.70
42031;DHT22;27709;52.036;5.906;2022-07-04T11:24:23;26.90;66.60
42031;DHT22;27709;52.036;5.906;2022-07-04T11:26:49;27.30;64.90
42031;DHT22;27709;52.036;5.906;2022-07-04T11:29:16;27.50;64.10
42031;DHT22;27709;52.036;5.906;2022-07-04T11:31:45;27.70;64.00
42031;DHT22;27709;52.036;5.906;2022-07-04T11:34:11;27.70;63.50
42031;DHT22;27709;52.036;5.906;2022-07-04T11:36:38;27.60;64.20
42031;DHT22;27709;52.036;5.906;2022-07-04T11:39:08;27.30;63.80
42031;DHT22;27709;52.036;5.906;2022-07-04T11:41:36;27.10;65.10
42031;DHT22;27709;52.036;5.906;2022-07-04T11:44:23;27.10;66.20
42031;DHT22;27709;52.036;5.906;2022-07-04T11:47:14;27.20;65.20
42031;DHT22;27709;52.036;5.906;2022-07-04T11:50:08;27.00;64.80
42031;DHT22;27709;52.036;5.906;2022-07-04T11:55:06;26.60;65.90
42031;DHT22;27709;52.036;5.906;2022-07-04T11:57:37;26.60;66.40
42031;DHT22;27709;52.036;5.906;2022-07-04T12:00:09;26.50;66.10
42031;DHT22;27709;52.036;5.906;2022-07-04T12:02:35;26.30;66.70
42031;DHT22;27709;52.036;5.906;2022-07-04T12:05:03;26.10;67.10
42031;DHT22;27709;52.036;5.906;2022-07-04T12:07:52;26.40;68.40
42031;DHT22;27709;52.036;5.906;2022-07-04T12:10:23;26.70;66.80
42031;DHT22;27709;52.036;5.906;2022-07-04T12:15:22;26.40;67.10
42031;DHT22;27709;52.036;5.906;2022-07-04T12:17:55;26.10;67.10
42031;DHT22;27709;52.036;5.906;2022-07-04T12:20:24;25.90;67.20
42031;DHT22;27709;52.036;5.906;2022-07-04T12:25:34;25.50;67.90
42031;DHT22;27709;52.036;5.906;2022-07-04T12:28:06;25.60;68.60
42031;DHT22;27709;52.036;5.906;2022-07-04T12:30:52;25.80;69.00
42031;DHT22;27709;52.036;5.906;2022-07-04T12:33:25;26.10;68.40
42031;DHT22;27709;52.036;5.906;2022-07-04T12:35:56;26.30;67.80
42031;DHT22;27709;52.036;5.906;2022-07-04T12:40:56;26.00;67.40
42031;DHT22;27709;52.036;5.906;2022-07-04T12:43:24;25.80;66.60
42031;DHT22;27709;52.036;5.906;2022-07-04T12:45:54;26.00;66.90
42031;DHT22;27709;52.036;5.906;2022-07-04T12:48:26;26.00;66.00
42031;DHT22;27709;52.036;5.906;2022-07-04T12:51:13;26.20;65.20
42031;DHT22;27709;52.036;5.906;2022-07-04T12:53:44;26.60;64.70
42031;DHT22;27709;52.036;5.906;2022-07-04T12:56:36;26.80;62.20
42031;DHT22;27709;52.036;5.906;2022-07-04T12:59:08;27.00;62.70
42031;DHT22;27709;52.036;5.906;2022-07-04T13:01:36;27.20;62.70
42031;DHT22;27709;52.036;5.906;2022-07-04T13:04:05;27.50;63.00
42031;DHT22;27709;52.036;5.906;2022-07-04T13:06:34;27.50;62.30
42031;DHT22;27709;52.036;5.906;2022-07-04T13:11:36;27.40;63.40
42031;DHT22;27709;52.036;5.906;2022-07-04T13:14:24;27.40;62.80
42031;DHT22;27709;52.036;5.906;2022-07-04T13:16:52;27.20;62.90
42031;DHT22;27709;52.036;5.906;2022-07-04T13:19:18;27.10;61.40
42031;DHT22;27709;52.036;5.906;2022-07-04T13:21:44;27.10;62.10
42031;DHT22;27709;52.036;5.906;2022-07-04T13:24:12;27.20;61.00
42031;DHT22;27709;52.036;5.906;2022-07-04T13:26:38;27.30;60.40
42031;DHT22;27709;52.036;5.906;2022-07-04T13:29:06;27.40;60.90
42031;DHT22;27709;52.036;5.906;2022-07-04T13:31:36;27.50;60.60
42031;DHT22;27709;52.036;5.906;2022-07-04T13:34:02;27.40;60.80
42031;DHT22;27709;52.036;5.906;2022-07-04T13:36:29;27.40;60.80
42031;DHT22;27709;52.036;5.906;2022-07-04T13:38:56;27.40;61.20
42031;DHT22;27709;52.036;5.906;2022-07-04T13:41:21;27.20;60.80
42031;DHT22;27709;52.036;5.906;2022-07-04T13:43:48;27.00;61.20
42031;DHT22;27709;52.036;5.906;2022-07-04T13:46:15;26.80;62.00
42031;DHT22;27709;52.036;5.906;2022-07-04T13:48:41;26.70;61.90
42031;DHT22;27709;52.036;5.906;2022-07-04T13:51:08;26.60;61.20
42031;DHT22;27709;52.036;5.906;2022-07-04T13:53:33;26.60;60.60
42031;DHT22;27709;52.036;5.906;2022-07-04T13:56:01;26.70;60.70
42031;DHT22;27709;52.036;5.906;2022-07-04T13:58:35;26.80;59.80
42031;DHT22;27709;52.036;5.906;2022-07-04T14:01:00;26.90;60.10
42031;DHT22;27709;52.036;5.906;2022-07-04T14:03:26;27.00;59.70
42031;DHT22;27709;52.036;5.906;2022-07-04T14:05:51;26.80;59.60
42031;DHT22;27709;52.036;5.906;2022-07-04T14:08:17;26.50;60.30
42031;DHT22;27709;52.036;5.906;2022-07-04T14:10:45;26.40;60.00
42031;DHT22;27709;52.036;5.906;2022-07-04T14:13:12;26.40;60.70
42031;DHT22;27709;52.036;5.906;2022-07-04T14:15:38;26.50;59.80
42031;DHT22;27709;52.036;5.906;2022-07-04T14:18:03;26.50;59.80
42031;DHT22;27709;52.036;5.906;2022-07-04T14:20:32;26.30;59.60
42031;DHT22;27709;52.036;5.906;2022-07-04T14:22:58;26.20;59.80
42031;DHT22;27709;52.036;5.906;2022-07-04T14:25:25;26.20;60.50
42031;DHT22;27709;52.036;5.906;2022-07-04T14:27:50;26.20;60.30
42031;DHT22;27709;52.036;5.906;2022-07-04T14:30:16;26.40;60.80
42031;DHT22;27709;52.036;5.906;2022-07-04T14:32:41;26.60;60.20
42031;DHT22;27709;52.036;5.906;2022-07-04T14:35:07;26.60;58.80
42031;DHT22;27709;52.036;5.906;2022-07-04T14:37:33;26.40;59.40
42031;DHT22;27709;52.036;5.906;2022-07-04T14:39:58;26.20;60.20
42031;DHT22;27709;52.036;5.906;2022-07-04T14:42:24;26.00;60.60
42031;DHT22;27709;52.036;5.906;2022-07-04T14:44:51;25.80;61.10
42031;DHT22;27709;52.036;5.906;2022-07-04T14:47:16;25.60;61.50
42031;DHT22;27709;52.036;5.906;2022-07-04T14:49:42;25.50;61.60
42031;DHT22;27709;52.036;5.906;2022-07-04T14:52:07;25.60;61.80
42031;DHT22;27709;52.036;5.906;2022-07-04T14:54:33;25.60;61.50
42031;DHT22;27709;52.036;5.906;2022-07-04T14:56:59;25.80;61.60
42031;DHT22;27709;52.036;5.906;2022-07-04T14:59:24;25.70;60.90
42031;DHT22;27709;52.036;5.906;2022-07-04T15:01:50;25.60;60.20
42031;DHT22;27709;52.036;5.906;2022-07-04T15:04:17;25.50;61.30
42031;DHT22;27709;52.036;5.906;2022-07-04T15:06:42;25.50;60.80
42031;DHT22;27709;52.036;5.906;2022-07-04T15:09:10;25.50;60.70
42031;DHT22;27709;52.036;5.906;2022-07-04T15:11:36;25.50;60.70
42031;DHT22;27709;52.036;5.906;2022-07-04T15:14:02;25.60;60.60
42031;DHT22;27709;52.036;5.906;2022-07-04T15:16:27;25.60;58.90
42031;DHT22;27709;52.036;5.906;2022-07-04T15:18:54;25.60;59.40
42031;DHT22;27709;52.036;5.906;2022-07-04T15:21:19;25.60;59.90
42031;DHT22;27709;52.036;5.906;2022-07-04T15:24:04;25.70;59.70
42031;DHT22;27709;52.036;5.906;2022-07-04T15:26:47;25.70;59.50
42031;DHT22;27709;52.036;5.906;2022-07-04T15:29:18;25.70;59.70
42031;DHT22;27709;52.036;5.906;2022-07-04T15:31:45;25.60;59.70
42031;DHT22;27709;52.036;5.906;2022-07-04T15:34:12;25.50;59.80
42031;DHT22;27709;52.036;5.906;2022-07-04T15:36:37;25.30;60.40
42031;DHT22;27709;52.036;5.906;2022-07-04T15:39:08;25.20;60.10
42031;DHT22;27709;52.036;5.906;2022-07-04T15:41:34;25.30;60.50
42031;DHT22;27709;52.036;5.906;2022-07-04T15:44:01;25.40;60.60
42031;DHT22;27709;52.036;5.906;2022-07-04T15:46:26;25.50;60.20
42031;DHT22;27709;52.036;5.906;2022-07-04T15:48:55;25.50;60.00
42031;DHT22;27709;52.036;5.906;2022-07-04T15:51:20;25.50;60.80
42031;DHT22;27709;52.036;5.906;2022-07-04T15:53:46;25.50;60.10
42031;DHT22;27709;52.036;5.906;2022-07-04T15:56:12;25.30;60.70
42031;DHT22;27709;52.036;5.906;2022-07-04T15:58:37;25.20;61.30
42031;DHT22;27709;52.036;5.906;2022-07-04T16:01:03;25.00;61.20
42031;DHT22;27709;52.036;5.906;2022-07-04T16:03:33;24.90;61.50
42031;DHT22;27709;52.036;5.906;2022-07-04T16:06:02;24.70;62.20
42031;DHT22;27709;52.036;5.906;2022-07-04T16:08:31;24.60;62.70
42031;DHT22;27709;52.036;5.906;2022-07-04T16:10:56;24.40;62.90
42031;DHT22;27709;52.036;5.906;2022-07-04T16:13:22;24.40;63.30
42031;DHT22;27709;52.036;5.906;2022-07-04T16:15:52;24.30;63.80